sensor_id;sensor_type;location;lat;lon;timestamp;P1;durP1;ratioP1;P2;durP2;ratioP2
28245;SDS011;15510;52.512;13.300;2022-09-17T00:00:33;9.40;;;2.10;;
28245;SDS011;15510;52.512;13.300;2022-09-17T00:03:01;9.03;;;1.80;;
28245;SDS011;15510;52.512;13.300;2022-09-17T00:05:27;6.23;;;1.70;;
28245;SDS011;15510;52.512;13.300;2022-09-17T00:07:52;2.97;;;1.60;;
28245;SDS011;15510;52.512;13.300;2022-09-17T00:10:18;3.17;;;1.40;;
28245;SDS011;15510;52.512;13.300;2022-09-17T00:12:45;7.23;;;2.40;;
28245;SDS011;15510;52.512;13.300;2022-09-17T00:15:11;7.93;;;1.83;;
28245;SDS011;15510;52.512;13.300;2022-09-17T00:17:37;6.57;;;1.80;;
28245;SDS011;15510;52.512;13.300;2022-09-17T00:20:03;6.93;;;1.77;;
28245;SDS011;15510;52.512;13.300;2022-09-17T00:22:31;7.27;;;1.87;;
28245;SDS011;15510;52.512;13.300;2022-09-17T00:24:57;6.63;;;1.83;;
28245;SDS011;15510;52.512;13.300;2022-09-17T00:27:22;5.37;;;1.90;;
28245;SDS011;15510;52.512;13.300;2022-09-17T00:29:48;6.33;;;2.00;;
28245;SDS011;15510;52.512;13.300;2022-09-17T00:32:13;4.43;;;1.70;;
28245;SDS011;15510;52.512;13.300;2022-09-17T00:34:39;8.30;;;2.00;;
28245;SDS011;15510;52.512;13.300;2022-09-17T00:37:06;6.20;;;1.50;;
28245;SDS011;15510;52.512;13.300;2022-09-17T00:39:32;5.00;;;1.90;;
28245;SDS011;15510;52.512;13.300;2022-09-17T00:41:58;6.23;;;1.67;;
28245;SDS011;15510;52.512;13.300;2022-09-17T00:50:03;6.63;;;2.07;;
28245;SDS011;15510;52.512;13.300;2022-09-17T00:52:32;6.70;;;2.43;;
28245;SDS011;15510;52.512;13.300;2022-09-17T00:55:27;3.87;;;1.50;;
28245;SDS011;15510;52.512;13.300;2022-09-17T00:57:57;6.03;;;1.70;;
28245;SDS011;15510;52.512;13.300;2022-09-17T01:00:25;5.13;;;1.43;;
28245;SDS011;15510;52.512;13.300;2022-09-17T01:02:52;6.40;;;1.42;;
28245;SDS011;15510;52.512;13.300;2022-09-17T01:05:34;9.20;;;1.83;;
28245;SDS011;15510;52.512;13.300;2022-09-17T01:08:23;7.03;;;1.60;;
28245;SDS011;15510;52.512;13.300;2022-09-17T01:11:21;8.07;;;2.07;;
28245;SDS011;15510;52.512;13.300;2022-09-17T01:28:09;7.13;;;1.53;;
28245;SDS011;15510;52.512;13.300;2022-09-17T01:33:21;6.23;;;1.47;;
28245;SDS011;15510;52.512;13.300;2022-09-17T01:38:42;7.60;;;1.53;;
28245;SDS011;15510;52.512;13.300;2022-09-17T01:46:40;12.27;;;1.77;;
28245;SDS011;15510;52.512;13.300;2022-09-17T01:49:10;8.27;;;2.00;;
28245;SDS011;15510;52.512;13.300;2022-09-17T01:51:39;9.20;;;1.60;;
28245;SDS011;15510;52.512;13.300;2022-09-17T01:54:17;10.63;;;2.30;;
28245;SDS011;15510;52.512;13.300;2022-09-17T01:56:51;6.38;;;1.60;;
28245;SDS011;15510;52.512;13.300;2022-09-17T01:59:24;6.90;;;1.90;;
28245;SDS011;15510;52.512;13.300;2022-09-17T02:01:59;3.03;;;1.83;;
28245;SDS011;15510;52.512;13.300;2022-09-17T02:04:45;4.53;;;1.70;;
28245;SDS011;15510;52.512;13.300;2022-09-17T02:07:19;4.60;;;1.70;;
28245;SDS011;15510;52.512;13.300;2022-09-17T02:10:30;6.70;;;2.03;;
28245;SDS011;15510;52.512;13.300;2022-09-17T02:12:43;5.23;;;1.63;;
28245;SDS011;15510;52.512;13.300;2022-09-17T02:15:15;8.27;;;1.90;;
28245;SDS011;15510;52.512;13.300;2022-09-17T02:17:47;7.97;;;1.67;;
28245;SDS011;15510;52.512;13.300;2022-09-17T02:20:18;4.43;;;1.67;;
28245;SDS011;15510;52.512;13.300;2022-09-17T02:22:57;6.13;;;1.57;;
28245;SDS011;15510;52.512;13.300;2022-09-17T02:27:55;3.80;;;1.70;;
28245;SDS011;15510;52.512;13.300;2022-09-17T02:30:33;4.55;;;1.55;;
28245;SDS011;15510;52.512;13.300;2022-09-17T02:33:00;6.55;;;2.05;;
28245;SDS011;15510;52.512;13.300;2022-09-17T02:35:29;8.43;;;2.08;;
28245;SDS011;15510;52.512;13.300;2022-09-17T02:37:56;3.17;;;1.95;;
28245;SDS011;15510;52.512;13.300;2022-09-17T02:40:22;5.23;;;1.70;;
28245;SDS011;15510;52.512;13.300;2022-09-17T02:43:03;7.73;;;2.77;;
28245;SDS011;15510;52.512;13.300;2022-09-17T02:45:39;11.30;;;2.40;;
28245;SDS011;15510;52.512;13.300;2022-09-17T02:51:10;8.57;;;2.23;;
28245;SDS011;15510;52.512;13.300;2022-09-17T02:57:11;12.20;;;2.00;;
28245;SDS011;15510;52.512;13.300;2022-09-17T02:59:46;14.15;;;2.22;;
28245;SDS011;15510;52.512;13.300;2022-09-17T03:02:27;8.95;;;2.58;;
28245;SDS011;15510;52.512;13.300;2022-09-17T03:04:59;11.48;;;2.20;;
28245;SDS011;15510;52.512;13.300;2022-09-17T03:07:26;8.90;;;2.17;;
28245;SDS011;15510;52.512;13.300;2022-09-17T03:09:53;9.30;;;2.00;;
28245;SDS011;15510;52.512;13.300;2022-09-17T03:12:19;6.50;;;1.65;;
28245;SDS011;15510;52.512;13.300;2022-09-17T03:14:44;6.97;;;1.60;;
28245;SDS011;15510;52.512;13.300;2022-09-17T03:17:10;9.35;;;1.88;;
28245;SDS011;15510;52.512;13.300;2022-09-17T03:19:37;9.73;;;1.97;;
28245;SDS011;15510;52.512;13.300;2022-09-17T03:22:02;5.37;;;1.57;;
28245;SDS011;15510;52.512;13.300;2022-09-17T03:24:28;5.40;;;1.83;;
28245;SDS011;15510;52.512;13.300;2022-09-17T03:26:53;9.73;;;2.13;;
28245;SDS011;15510;52.512;13.300;2022-09-17T03:29:19;7.68;;;1.83;;
28245;SDS011;15510;52.512;13.300;2022-09-17T03:31:45;8.13;;;1.55;;
28245;SDS011;15510;52.512;13.300;2022-09-17T03:34:10;10.85;;;1.80;;
28245;SDS011;15510;52.512;13.300;2022-09-17T03:36:36;7.10;;;1.48;;
28245;SDS011;15510;52.512;13.300;2022-09-17T03:39:02;7.15;;;1.98;;
28245;SDS011;15510;52.512;13.300;2022-09-17T03:41:27;8.40;;;1.40;;
28245;SDS011;15510;52.512;13.300;2022-09-17T03:43:53;6.03;;;1.60;;
28245;SDS011;15510;52.512;13.300;2022-09-17T03:46:19;10.13;;;2.43;;
28245;SDS011;15510;52.512;13.300;2022-09-17T03:48:44;5.82;;;1.48;;
28245;SDS011;15510;52.512;13.300;2022-09-17T03:51:10;9.57;;;2.10;;
28245;SDS011;15510;52.512;13.300;2022-09-17T03:53:36;4.03;;;1.40;;
28245;SDS011;15510;52.512;13.300;2022-09-17T03:56:02;8.20;;;2.17;;
28245;SDS011;15510;52.512;13.300;2022-09-17T03:58:30;7.57;;;1.75;;
28245;SDS011;15510;52.512;13.300;2022-09-17T04:00:55;11.68;;;2.53;;
28245;SDS011;15510;52.512;13.300;2022-09-17T04:03:25;8.83;;;2.40;;
28245;SDS011;15510;52.512;13.300;2022-09-17T04:05:52;5.28;;;1.50;;
28245;SDS011;15510;52.512;13.300;2022-09-17T04:08:17;5.17;;;1.90;;
28245;SDS011;15510;52.512;13.300;2022-09-17T04:10:44;9.55;;;1.63;;
28245;SDS011;15510;52.512;13.300;2022-09-17T04:13:10;6.88;;;1.50;;
28245;SDS011;15510;52.512;13.300;2022-09-17T04:15:36;4.60;;;1.70;;
28245;SDS011;15510;52.512;13.300;2022-09-17T04:18:01;8.52;;;1.75;;
28245;SDS011;15510;52.512;13.300;2022-09-17T04:20:27;12.98;;;1.80;;
28245;SDS011;15510;52.512;13.300;2022-09-17T04:22:53;7.78;;;1.52;;
28245;SDS011;15510;52.512;13.300;2022-09-17T04:25:19;9.75;;;1.65;;
28245;SDS011;15510;52.512;13.300;2022-09-17T04:27:44;13.02;;;1.70;;
28245;SDS011;15510;52.512;13.300;2022-09-17T04:30:12;8.73;;;1.50;;
28245;SDS011;15510;52.512;13.300;2022-09-17T04:32:38;7.80;;;1.65;;
28245;SDS011;15510;52.512;13.300;2022-09-17T04:35:04;4.30;;;1.58;;
28245;SDS011;15510;52.512;13.300;2022-09-17T04:37:30;7.32;;;1.52;;
28245;SDS011;15510;52.512;13.300;2022-09-17T04:39:55;8.00;;;2.03;;
28245;SDS011;15510;52.512;13.300;2022-09-17T04:42:21;8.33;;;1.80;;
28245;SDS011;15510;52.512;13.300;2022-09-17T04:44:47;6.10;;;2.20;;
28245;SDS011;15510;52.512;13.300;2022-09-17T04:47:12;8.10;;;1.63;;
28245;SDS011;15510;52.512;13.300;2022-09-17T04:49:38;9.17;;;1.83;;
28245;SDS011;15510;52.512;13.300;2022-09-17T04:52:04;6.43;;;2.53;;
28245;SDS011;15510;52.512;13.300;2022-09-17T04:54:30;6.30;;;2.05;;
28245;SDS011;15510;52.512;13.300;2022-09-17T04:56:55;2.88;;;1.00;;
28245;SDS011;15510;52.512;13.300;2022-09-17T04:59:22;5.82;;;1.40;;
28245;SDS011;15510;52.512;13.300;2022-09-17T05:01:47;8.85;;;1.67;;
28245;SDS011;15510;52.512;13.300;2022-09-17T05:04:13;5.72;;;1.83;;
28245;SDS011;15510;52.512;13.300;2022-09-17T05:06:39;8.15;;;2.55;;
28245;SDS011;15510;52.512;13.300;2022-09-17T05:09:05;6.05;;;1.63;;
28245;SDS011;15510;52.512;13.300;2022-09-17T05:11:30;7.85;;;2.03;;
28245;SDS011;15510;52.512;13.300;2022-09-17T05:13:56;6.37;;;1.60;;
28245;SDS011;15510;52.512;13.300;2022-09-17T05:16:22;6.85;;;1.83;;
28245;SDS011;15510;52.512;13.300;2022-09-17T05:18:47;6.63;;;1.33;;
28245;SDS011;15510;52.512;13.300;2022-09-17T05:21:15;7.15;;;1.58;;
28245;SDS011;15510;52.512;13.300;2022-09-17T05:23:41;5.32;;;1.40;;
28245;SDS011;15510;52.512;13.300;2022-09-17T05:26:07;5.18;;;1.60;;
28245;SDS011;15510;52.512;13.300;2022-09-17T05:28:32;7.50;;;1.65;;
28245;SDS011;15510;52.512;13.300;2022-09-17T05:30:58;14.60;;;2.38;;
28245;SDS011;15510;52.512;13.300;2022-09-17T05:33:24;6.45;;;2.10;;
28245;SDS011;15510;52.512;13.300;2022-09-17T05:35:50;8.50;;;1.63;;
28245;SDS011;15510;52.512;13.300;2022-09-17T05:38:16;5.57;;;1.60;;
28245;SDS011;15510;52.512;13.300;2022-09-17T05:40:43;6.85;;;2.15;;
28245;SDS011;15510;52.512;13.300;2022-09-17T05:43:09;5.75;;;1.90;;
28245;SDS011;15510;52.512;13.300;2022-09-17T05:45:35;8.43;;;2.00;;
28245;SDS011;15510;52.512;13.300;2022-09-17T05:48:02;6.75;;;1.63;;
28245;SDS011;15510;52.512;13.300;2022-09-17T05:50:30;7.40;;;1.80;;
28245;SDS011;15510;52.512;13.300;2022-09-17T05:52:56;9.48;;;2.08;;
28245;SDS011;15510;52.512;13.300;2022-09-17T05:55:37;5.07;;;2.03;;
28245;SDS011;15510;52.512;13.300;2022-09-17T05:58:10;11.02;;;2.28;;
28245;SDS011;15510;52.512;13.300;2022-09-17T06:00:40;12.32;;;2.67;;
28245;SDS011;15510;52.512;13.300;2022-09-17T06:03:07;10.88;;;2.00;;
28245;SDS011;15510;52.512;13.300;2022-09-17T06:05:37;12.85;;;3.00;;
28245;SDS011;15510;52.512;13.300;2022-09-17T06:08:03;13.00;;;2.60;;
28245;SDS011;15510;52.512;13.300;2022-09-17T06:10:29;10.13;;;2.22;;
28245;SDS011;15510;52.512;13.300;2022-09-17T06:12:56;11.60;;;2.65;;
28245;SDS011;15510;52.512;13.300;2022-09-17T06:15:22;8.95;;;2.35;;
28245;SDS011;15510;52.512;13.300;2022-09-17T06:17:48;10.93;;;3.42;;
28245;SDS011;15510;52.512;13.300;2022-09-17T06:20:14;13.15;;;4.07;;
28245;SDS011;15510;52.512;13.300;2022-09-17T06:22:40;15.20;;;3.15;;
28245;SDS011;15510;52.512;13.300;2022-09-17T06:25:06;15.02;;;3.03;;
28245;SDS011;15510;52.512;13.300;2022-09-17T06:27:32;12.88;;;3.00;;
28245;SDS011;15510;52.512;13.300;2022-09-17T06:29:59;11.35;;;3.28;;
28245;SDS011;15510;52.512;13.300;2022-09-17T06:32:25;15.32;;;3.50;;
28245;SDS011;15510;52.512;13.300;2022-09-17T06:34:51;17.83;;;3.50;;
28245;SDS011;15510;52.512;13.300;2022-09-17T06:37:18;14.30;;;3.17;;
28245;SDS011;15510;52.512;13.300;2022-09-17T06:39:43;12.30;;;3.03;;
28245;SDS011;15510;52.512;13.300;2022-09-17T06:42:09;14.60;;;3.10;;
28245;SDS011;15510;52.512;13.300;2022-09-17T06:44:37;16.80;;;3.67;;
28245;SDS011;15510;52.512;13.300;2022-09-17T06:47:03;13.35;;;2.97;;
28245;SDS011;15510;52.512;13.300;2022-09-17T06:49:28;17.80;;;2.95;;
28245;SDS011;15510;52.512;13.300;2022-09-17T06:51:55;14.27;;;3.35;;
28245;SDS011;15510;52.512;13.300;2022-09-17T06:54:21;14.77;;;3.25;;
28245;SDS011;15510;52.512;13.300;2022-09-17T06:56:46;14.05;;;3.78;;
28245;SDS011;15510;52.512;13.300;2022-09-17T06:59:12;17.27;;;3.80;;
28245;SDS011;15510;52.512;13.300;2022-09-17T07:01:38;10.85;;;3.15;;
28245;SDS011;15510;52.512;13.300;2022-09-17T07:04:03;10.35;;;2.80;;
28245;SDS011;15510;52.512;13.300;2022-09-17T07:06:29;17.15;;;3.13;;
28245;SDS011;15510;52.512;13.300;2022-09-17T07:08:55;14.43;;;2.72;;
28245;SDS011;15510;52.512;13.300;2022-09-17T07:11:21;10.38;;;2.63;;
28245;SDS011;15510;52.512;13.300;2022-09-17T07:13:47;10.25;;;2.80;;
28245;SDS011;15510;52.512;13.300;2022-09-17T07:16:16;14.65;;;2.75;;
28245;SDS011;15510;52.512;13.300;2022-09-17T07:18:42;13.32;;;2.38;;
28245;SDS011;15510;52.512;13.300;2022-09-17T07:21:08;9.65;;;2.35;;
28245;SDS011;15510;52.512;13.300;2022-09-17T07:23:35;12.90;;;2.63;;
28245;SDS011;15510;52.512;13.300;2022-09-17T07:26:02;9.68;;;2.17;;
28245;SDS011;15510;52.512;13.300;2022-09-17T07:28:30;13.73;;;2.72;;
28245;SDS011;15510;52.512;13.300;2022-09-17T07:30:55;17.38;;;3.08;;
28245;SDS011;15510;52.512;13.300;2022-09-17T07:33:23;9.35;;;1.98;;
28245;SDS011;15510;52.512;13.300;2022-09-17T07:36:00;12.88;;;2.42;;
28245;SDS011;15510;52.512;13.300;2022-09-17T07:38:27;10.40;;;2.28;;
28245;SDS011;15510;52.512;13.300;2022-09-17T07:40:55;10.60;;;2.50;;
28245;SDS011;15510;52.512;13.300;2022-09-17T07:43:22;14.23;;;2.70;;
28245;SDS011;15510;52.512;13.300;2022-09-17T07:45:50;13.50;;;2.75;;
28245;SDS011;15510;52.512;13.300;2022-09-17T07:48:17;13.60;;;3.10;;
28245;SDS011;15510;52.512;13.300;2022-09-17T07:50:43;10.90;;;2.53;;
28245;SDS011;15510;52.512;13.300;2022-09-17T07:53:09;8.90;;;2.55;;
28245;SDS011;15510;52.512;13.300;2022-09-17T07:55:34;9.10;;;2.22;;
28245;SDS011;15510;52.512;13.300;2022-09-17T07:58:00;13.63;;;3.05;;
28245;SDS011;15510;52.512;13.300;2022-09-17T08:00:25;10.07;;;2.47;;
28245;SDS011;15510;52.512;13.300;2022-09-17T08:02:52;12.45;;;2.95;;
28245;SDS011;15510;52.512;13.300;2022-09-17T08:05:18;8.52;;;2.00;;
28245;SDS011;15510;52.512;13.300;2022-09-17T08:07:48;8.43;;;1.95;;
28245;SDS011;15510;52.512;13.300;2022-09-17T08:10:14;7.32;;;1.92;;
28245;SDS011;15510;52.512;13.300;2022-09-17T08:12:40;16.92;;;2.88;;
28245;SDS011;15510;52.512;13.300;2022-09-17T08:15:06;16.38;;;2.63;;
28245;SDS011;15510;52.512;13.300;2022-09-17T08:17:31;10.18;;;2.13;;
28245;SDS011;15510;52.512;13.300;2022-09-17T08:19:57;9.25;;;2.10;;
28245;SDS011;15510;52.512;13.300;2022-09-17T08:22:23;9.88;;;2.25;;
28245;SDS011;15510;52.512;13.300;2022-09-17T08:24:48;10.93;;;2.22;;
28245;SDS011;15510;52.512;13.300;2022-09-17T08:27:14;7.03;;;1.73;;
28245;SDS011;15510;52.512;13.300;2022-09-17T08:29:39;11.63;;;2.13;;
28245;SDS011;15510;52.512;13.300;2022-09-17T08:32:05;12.57;;;2.72;;
28245;SDS011;15510;52.512;13.300;2022-09-17T08:34:31;8.73;;;1.90;;
28245;SDS011;15510;52.512;13.300;2022-09-17T08:36:56;8.05;;;1.98;;
28245;SDS011;15510;52.512;13.300;2022-09-17T08:39:22;11.23;;;2.60;;
28245;SDS011;15510;52.512;13.300;2022-09-17T08:41:49;7.38;;;2.22;;
28245;SDS011;15510;52.512;13.300;2022-09-17T08:47:12;11.30;;;2.10;;
28245;SDS011;15510;52.512;13.300;2022-09-17T08:55:21;8.98;;;2.33;;
28245;SDS011;15510;52.512;13.300;2022-09-17T08:58:06;9.80;;;1.77;;
28245;SDS011;15510;52.512;13.300;2022-09-17T09:06:38;9.73;;;2.95;;
28245;SDS011;15510;52.512;13.300;2022-09-17T09:09:12;10.05;;;2.63;;
28245;SDS011;15510;52.512;13.300;2022-09-17T09:11:40;9.85;;;2.33;;
28245;SDS011;15510;52.512;13.300;2022-09-17T09:14:24;9.60;;;2.13;;
28245;SDS011;15510;52.512;13.300;2022-09-17T09:16:55;10.75;;;1.55;;
28245;SDS011;15510;52.512;13.300;2022-09-17T09:19:25;9.80;;;1.98;;
28245;SDS011;15510;52.512;13.300;2022-09-17T09:22:17;8.10;;;2.00;;
28245;SDS011;15510;52.512;13.300;2022-09-17T09:25:25;9.45;;;2.17;;
28245;SDS011;15510;52.512;13.300;2022-09-17T09:27:55;8.38;;;1.67;;
28245;SDS011;15510;52.512;13.300;2022-09-17T09:30:57;13.43;;;2.17;;
28245;SDS011;15510;52.512;13.300;2022-09-17T09:33:38;9.98;;;1.70;;
28245;SDS011;15510;52.512;13.300;2022-09-17T09:36:07;9.82;;;1.95;;
28245;SDS011;15510;52.512;13.300;2022-09-17T09:38:39;12.73;;;2.13;;
28245;SDS011;15510;52.512;13.300;2022-09-17T09:41:12;10.35;;;1.92;;
28245;SDS011;15510;52.512;13.300;2022-09-17T09:43:47;10.85;;;2.08;;
28245;SDS011;15510;52.512;13.300;2022-09-17T09:57:10;12.85;;;2.00;;
28245;SDS011;15510;52.512;13.300;2022-09-17T09:59:39;10.10;;;2.08;;
28245;SDS011;15510;52.512;13.300;2022-09-17T10:02:05;7.35;;;1.30;;
28245;SDS011;15510;52.512;13.300;2022-09-17T10:04:32;6.97;;;1.58;;
28245;SDS011;15510;52.512;13.300;2022-09-17T10:09:30;8.88;;;1.80;;
28245;SDS011;15510;52.512;13.300;2022-09-17T10:14:41;10.55;;;1.75;;
28245;SDS011;15510;52.512;13.300;2022-09-17T10:17:15;6.22;;;1.38;;
28245;SDS011;15510;52.512;13.300;2022-09-17T10:22:34;6.85;;;2.40;;
28245;SDS011;15510;52.512;13.300;2022-09-17T10:25:05;7.45;;;2.05;;
28245;SDS011;15510;52.512;13.300;2022-09-17T10:27:45;7.25;;;1.70;;
28245;SDS011;15510;52.512;13.300;2022-09-17T10:32:41;7.75;;;2.00;;
28245;SDS011;15510;52.512;13.300;2022-09-17T10:37:44;4.57;;;1.80;;
28245;SDS011;15510;52.512;13.300;2022-09-17T10:42:44;10.38;;;2.53;;
28245;SDS011;15510;52.512;13.300;2022-09-17T10:45:26;8.15;;;2.03;;
28245;SDS011;15510;52.512;13.300;2022-09-17T10:47:54;8.52;;;2.13;;
28245;SDS011;15510;52.512;13.300;2022-09-17T10:50:28;6.95;;;2.20;;
28245;SDS011;15510;52.512;13.300;2022-09-17T10:52:56;7.70;;;2.30;;
28245;SDS011;15510;52.512;13.300;2022-09-17T10:56:12;10.40;;;2.35;;
28245;SDS011;15510;52.512;13.300;2022-09-17T11:14:50;5.82;;;1.77;;
28245;SDS011;15510;52.512;13.300;2022-09-17T11:26:38;4.65;;;1.20;;
28245;SDS011;15510;52.512;13.300;2022-09-17T11:29:06;4.25;;;1.88;;
28245;SDS011;15510;52.512;13.300;2022-09-17T11:31:55;4.65;;;1.73;;
28245;SDS011;15510;52.512;13.300;2022-09-17T11:37:10;4.10;;;1.15;;
28245;SDS011;15510;52.512;13.300;2022-09-17T11:39:59;4.63;;;1.48;;
28245;SDS011;15510;52.512;13.300;2022-09-17T11:45:03;7.20;;;1.13;;
28245;SDS011;15510;52.512;13.300;2022-09-17T11:47:43;4.20;;;1.08;;
28245;SDS011;15510;52.512;13.300;2022-09-17T11:50:41;3.45;;;0.98;;
28245;SDS011;15510;52.512;13.300;2022-09-17T11:55:52;4.90;;;1.15;;
28245;SDS011;15510;52.512;13.300;2022-09-17T12:06:51;3.33;;;0.82;;
28245;SDS011;15510;52.512;13.300;2022-09-17T12:09:25;4.18;;;1.00;;
28245;SDS011;15510;52.512;13.300;2022-09-17T12:12:02;5.78;;;0.65;;
28245;SDS011;15510;52.512;13.300;2022-09-17T12:14:45;5.68;;;1.13;;
28245;SDS011;15510;52.512;13.300;2022-09-17T12:17:20;4.00;;;0.90;;
28245;SDS011;15510;52.512;13.300;2022-09-17T12:19:58;6.97;;;0.93;;
28245;SDS011;15510;52.512;13.300;2022-09-17T12:22:31;4.60;;;1.27;;
28245;SDS011;15510;52.512;13.300;2022-09-17T12:25:00;3.97;;;1.10;;
28245;SDS011;15510;52.512;13.300;2022-09-17T12:30:04;2.00;;;0.68;;
28245;SDS011;15510;52.512;13.300;2022-09-17T12:41:19;5.25;;;1.05;;
28245;SDS011;15510;52.512;13.300;2022-09-17T12:43:54;5.20;;;2.08;;
28245;SDS011;15510;52.512;13.300;2022-09-17T12:54:47;3.42;;;1.20;;
28245;SDS011;15510;52.512;13.300;2022-09-17T13:00:00;4.75;;;1.40;;
28245;SDS011;15510;52.512;13.300;2022-09-17T13:13:55;2.60;;;0.70;;
28245;SDS011;15510;52.512;13.300;2022-09-17T13:19:19;5.88;;;0.95;;
28245;SDS011;15510;52.512;13.300;2022-09-17T13:24:44;4.50;;;0.57;;
28245;SDS011;15510;52.512;13.300;2022-09-17T13:27:23;3.58;;;0.82;;
28245;SDS011;15510;52.512;13.300;2022-09-17T13:37:56;9.18;;;4.55;;
28245;SDS011;15510;52.512;13.300;2022-09-17T13:40:27;3.92;;;1.50;;
28245;SDS011;15510;52.512;13.300;2022-09-17T13:46:04;3.65;;;1.30;;
28245;SDS011;15510;52.512;13.300;2022-09-17T13:48:35;1.95;;;0.70;;
28245;SDS011;15510;52.512;13.300;2022-09-17T13:54:06;13.02;;;5.30;;
28245;SDS011;15510;52.512;13.300;2022-09-17T13:56:35;4.50;;;1.50;;
28245;SDS011;15510;52.512;13.300;2022-09-17T13:59:06;8.38;;;3.30;;
28245;SDS011;15510;52.512;13.300;2022-09-17T14:04:31;7.25;;;1.80;;
28245;SDS011;15510;52.512;13.300;2022-09-17T14:20:54;6.43;;;1.23;;
28245;SDS011;15510;52.512;13.300;2022-09-17T14:23:42;5.10;;;1.50;;
28245;SDS011;15510;52.512;13.300;2022-09-17T14:26:11;13.32;;;1.23;;
28245;SDS011;15510;52.512;13.300;2022-09-17T14:28:59;7.05;;;0.90;;
28245;SDS011;15510;52.512;13.300;2022-09-17T14:31:34;6.15;;;1.15;;
28245;SDS011;15510;52.512;13.300;2022-09-17T14:34:02;3.42;;;1.20;;
28245;SDS011;15510;52.512;13.300;2022-09-17T14:36:29;7.22;;;0.98;;
28245;SDS011;15510;52.512;13.300;2022-09-17T14:39:01;5.82;;;0.60;;
28245;SDS011;15510;52.512;13.300;2022-09-17T14:41:31;8.27;;;3.22;;
28245;SDS011;15510;52.512;13.300;2022-09-17T14:51:58;1.65;;;0.90;;
28245;SDS011;15510;52.512;13.300;2022-09-17T14:56:53;2.45;;;0.88;;
28245;SDS011;15510;52.512;13.300;2022-09-17T14:59:42;6.20;;;3.97;;
28245;SDS011;15510;52.512;13.300;2022-09-17T15:05:00;2.55;;;0.95;;
28245;SDS011;15510;52.512;13.300;2022-09-17T15:07:37;4.60;;;2.60;;
28245;SDS011;15510;52.512;13.300;2022-09-17T15:10:13;11.35;;;8.68;;
28245;SDS011;15510;52.512;13.300;2022-09-17T15:12:42;2.78;;;1.30;;
28245;SDS011;15510;52.512;13.300;2022-09-17T15:15:14;3.17;;;1.30;;
28245;SDS011;15510;52.512;13.300;2022-09-17T15:17:47;4.75;;;1.70;;
28245;SDS011;15510;52.512;13.300;2022-09-17T15:20:19;4.00;;;1.15;;
28245;SDS011;15510;52.512;13.300;2022-09-17T15:22:54;2.03;;;0.73;;
28245;SDS011;15510;52.512;13.300;2022-09-17T15:25:28;1.95;;;0.50;;
28245;SDS011;15510;52.512;13.300;2022-09-17T15:27:56;2.45;;;1.00;;
28245;SDS011;15510;52.512;13.300;2022-09-17T15:30:24;2.70;;;0.90;;
28245;SDS011;15510;52.512;13.300;2022-09-17T15:32:51;2.95;;;0.38;;
28245;SDS011;15510;52.512;13.300;2022-09-17T15:35:23;2.40;;;0.50;;
28245;SDS011;15510;52.512;13.300;2022-09-17T15:37:55;3.92;;;0.65;;
28245;SDS011;15510;52.512;13.300;2022-09-17T15:40:29;2.05;;;1.25;;
28245;SDS011;15510;52.512;13.300;2022-09-17T15:43:32;2.08;;;1.10;;
28245;SDS011;15510;52.512;13.300;2022-09-17T15:46:13;3.55;;;1.17;;
28245;SDS011;15510;52.512;13.300;2022-09-17T15:48:54;1.95;;;0.90;;
28245;SDS011;15510;52.512;13.300;2022-09-17T15:53:58;3.95;;;1.45;;
28245;SDS011;15510;52.512;13.300;2022-09-17T15:56:31;5.13;;;3.65;;
28245;SDS011;15510;52.512;13.300;2022-09-17T15:59:04;10.32;;;6.43;;
28245;SDS011;15510;52.512;13.300;2022-09-17T16:07:26;2.33;;;1.10;;
28245;SDS011;15510;52.512;13.300;2022-09-17T16:09:54;2.58;;;0.60;;
28245;SDS011;15510;52.512;13.300;2022-09-17T16:12:21;4.60;;;3.22;;
28245;SDS011;15510;52.512;13.300;2022-09-17T16:14:50;6.63;;;4.00;;
28245;SDS011;15510;52.512;13.300;2022-09-17T16:17:21;16.27;;;11.27;;
28245;SDS011;15510;52.512;13.300;2022-09-17T16:19:47;11.68;;;7.13;;
28245;SDS011;15510;52.512;13.300;2022-09-17T16:22:12;4.55;;;3.05;;
28245;SDS011;15510;52.512;13.300;2022-09-17T16:24:38;6.43;;;4.95;;
28245;SDS011;15510;52.512;13.300;2022-09-17T16:27:03;12.23;;;7.15;;
28245;SDS011;15510;52.512;13.300;2022-09-17T16:29:30;9.35;;;4.75;;
28245;SDS011;15510;52.512;13.300;2022-09-17T16:31:55;4.97;;;1.08;;
28245;SDS011;15510;52.512;13.300;2022-09-17T16:34:21;2.85;;;1.27;;
28245;SDS011;15510;52.512;13.300;2022-09-17T16:36:48;6.22;;;4.10;;
28245;SDS011;15510;52.512;13.300;2022-09-17T16:39:14;5.80;;;2.90;;
28245;SDS011;15510;52.512;13.300;2022-09-17T16:41:40;3.17;;;1.30;;
28245;SDS011;15510;52.512;13.300;2022-09-17T16:44:05;2.13;;;0.73;;
28245;SDS011;15510;52.512;13.300;2022-09-17T16:46:31;7.00;;;3.60;;
28245;SDS011;15510;52.512;13.300;2022-09-17T16:48:57;3.85;;;1.83;;
28245;SDS011;15510;52.512;13.300;2022-09-17T16:51:24;5.97;;;2.53;;
28245;SDS011;15510;52.512;13.300;2022-09-17T16:53:50;4.72;;;3.42;;
28245;SDS011;15510;52.512;13.300;2022-09-17T16:56:16;8.75;;;5.05;;
28245;SDS011;15510;52.512;13.300;2022-09-17T16:58:41;15.18;;;9.13;;
28245;SDS011;15510;52.512;13.300;2022-09-17T17:01:07;16.77;;;11.73;;
28245;SDS011;15510;52.512;13.300;2022-09-17T17:03:34;11.82;;;7.28;;
28245;SDS011;15510;52.512;13.300;2022-09-17T17:06:00;9.43;;;6.40;;
28245;SDS011;15510;52.512;13.300;2022-09-17T17:08:26;8.23;;;4.47;;
28245;SDS011;15510;52.512;13.300;2022-09-17T17:10:52;10.05;;;6.00;;
28245;SDS011;15510;52.512;13.300;2022-09-17T17:13:17;4.45;;;2.20;;
28245;SDS011;15510;52.512;13.300;2022-09-17T17:15:43;2.60;;;1.30;;
28245;SDS011;15510;52.512;13.300;2022-09-17T17:18:09;2.60;;;1.20;;
28245;SDS011;15510;52.512;13.300;2022-09-17T17:20:34;3.33;;;1.05;;
28245;SDS011;15510;52.512;13.300;2022-09-17T17:23:01;3.38;;;1.27;;
28245;SDS011;15510;52.512;13.300;2022-09-17T17:25:28;4.18;;;1.35;;
28245;SDS011;15510;52.512;13.300;2022-09-17T17:27:54;1.10;;;0.90;;
28245;SDS011;15510;52.512;13.300;2022-09-17T17:30:20;8.32;;;5.13;;
28245;SDS011;15510;52.512;13.300;2022-09-17T17:32:50;3.22;;;2.03;;
28245;SDS011;15510;52.512;13.300;2022-09-17T17:35:17;21.98;;;15.00;;
28245;SDS011;15510;52.512;13.300;2022-09-17T17:37:43;25.55;;;17.02;;
28245;SDS011;15510;52.512;13.300;2022-09-17T17:40:09;13.20;;;8.25;;
28245;SDS011;15510;52.512;13.300;2022-09-17T17:42:35;6.53;;;3.67;;
28245;SDS011;15510;52.512;13.300;2022-09-17T17:45:06;9.03;;;5.77;;
28245;SDS011;15510;52.512;13.300;2022-09-17T17:47:32;13.18;;;8.10;;
28245;SDS011;15510;52.512;13.300;2022-09-17T17:49:58;10.67;;;6.43;;
28245;SDS011;15510;52.512;13.300;2022-09-17T17:52:24;6.80;;;4.73;;
28245;SDS011;15510;52.512;13.300;2022-09-17T17:54:49;7.47;;;3.33;;
28245;SDS011;15510;52.512;13.300;2022-09-17T17:57:15;4.60;;;3.33;;
28245;SDS011;15510;52.512;13.300;2022-09-17T17:59:41;13.47;;;10.40;;
28245;SDS011;15510;52.512;13.300;2022-09-17T18:02:07;16.93;;;11.53;;
28245;SDS011;15510;52.512;13.300;2022-09-17T18:04:34;19.00;;;14.33;;
28245;SDS011;15510;52.512;13.300;2022-09-17T18:06:59;9.77;;;6.17;;
28245;SDS011;15510;52.512;13.300;2022-09-17T18:09:25;10.35;;;6.95;;
28245;SDS011;15510;52.512;13.300;2022-09-17T18:11:50;15.50;;;10.00;;
28245;SDS011;15510;52.512;13.300;2022-09-17T18:14:16;15.93;;;6.17;;
28245;SDS011;15510;52.512;13.300;2022-09-17T18:16:42;12.87;;;5.80;;
28245;SDS011;15510;52.512;13.300;2022-09-17T18:19:08;9.30;;;6.43;;